createdAt,value
2022-10-11T00:01:00.208Z,89.68
2022-10-11T00:04:01.969Z,89.78
2022-10-11T00:07:03.897Z,89.88
2022-10-11T00:10:06.830Z,90.10
2022-10-11T00:13:08.961Z,90.48
2022-10-11T00:16:12.131Z,90.39
2022-10-11T00:19:14.385Z,90.62
2022-10-11T00:22:16.157Z,90.91
2022-10-11T00:25:18.371Z,90.40
2022-10-11T00:28:20.119Z,90.95
2022-10-11T00:31:21.926Z,91.03
2022-10-11T00:34:23.963Z,91.10
2022-10-11T00:37:25.846Z,90.84
2022-10-11T00:40:27.562Z,91.40
2022-10-11T00:43:31.737Z,91.03
2022-10-11T00:46:33.648Z,91.16
2022-10-11T00:49:43.371Z,90.93
2022-10-11T00:52:50.327Z,91.03
2022-10-11T00:55:58.923Z,91.11
2022-10-11T00:59:04.417Z,90.80
2022-10-11T01:02:07.590Z,90.63
2022-10-11T01:05:28.510Z,90.68
2022-10-11T01:08:31.742Z,91.66
2022-10-11T01:11:35.860Z,91.79
2022-10-11T01:14:52.679Z,91.71
2022-10-11T01:18:19.004Z,91.66
2022-10-11T01:21:27.410Z,91.79
2022-10-11T01:24:56.993Z,92.01
2022-10-11T01:28:32.567Z,91.52
2022-10-11T01:31:52.420Z,92.03
2022-10-11T01:35:06.431Z,91.88
2022-10-11T01:38:17.100Z,92.09
2022-10-11T01:41:27.071Z,92.49
2022-10-11T01:44:29.404Z,92.47
2022-10-11T01:47:31.628Z,92.65
2022-10-11T01:50:35.436Z,92.44
2022-10-11T01:53:59.623Z,92.54
2022-10-11T01:57:19.802Z,93.23
2022-10-11T02:00:24.660Z,93.53
2022-10-11T02:03:43.589Z,94.38
2022-10-11T02:07:01.192Z,94.15
2022-10-11T02:10:05.983Z,93.81
2022-10-11T02:13:20.129Z,93.69
2022-10-11T02:16:31.637Z,94.11
2022-10-11T02:19:39.440Z,93.81
2022-10-11T02:22:45.999Z,94.05
2022-10-11T02:25:49.189Z,94.34
2022-10-11T02:28:53.250Z,94.31
2022-10-11T02:31:58.357Z,94.32
2022-10-11T02:35:02.198Z,94.00
2022-10-11T02:38:26.607Z,93.54
2022-10-11T02:41:36.525Z,93.60
2022-10-11T02:44:46.639Z,94.31
2022-10-11T02:47:48.669Z,94.26
2022-10-11T02:50:50.369Z,94.12
2022-10-11T02:53:52.063Z,94.44
2022-10-11T02:56:53.726Z,94.19
2022-10-11T02:59:55.461Z,94.37
2022-10-11T03:02:57.146Z,94.88
2022-10-11T03:06:03.864Z,95.09
2022-10-11T03:09:05.866Z,95.76
2022-10-11T03:12:07.632Z,96.08
2022-10-11T03:15:09.794Z,96.10
2022-10-11T03:18:11.402Z,96.30
2022-10-11T03:21:13.335Z,96.35
2022-10-11T03:24:15.119Z,96.11
2022-10-11T03:27:16.902Z,96.25
2022-10-11T03:30:20.208Z,97.00
2022-10-11T03:33:21.905Z,97.80
2022-10-11T03:36:23.623Z,98.08
2022-10-11T03:39:25.284Z,98.82
2022-10-11T03:42:27.158Z,99.32
2022-10-11T03:45:28.768Z,99.16
2022-10-11T03:48:30.399Z,98.69
2022-10-11T03:51:32.008Z,98.49
2022-10-11T03:54:33.697Z,97.86
2022-10-11T03:57:35.615Z,97.95
2022-10-11T04:00:40.435Z,98.67
2022-10-11T04:03:42.166Z,99.22
2022-10-11T04:06:43.830Z,99.73
2022-10-11T04:09:45.605Z,99.72
2022-10-11T04:12:47.274Z,99.87
2022-10-11T04:15:48.966Z,100.00
2022-10-11T04:18:50.614Z,100.00
2022-10-11T04:21:52.353Z,100.00
2022-10-11T04:24:54.199Z,100.00
2022-10-11T04:27:56.132Z,100.00
2022-10-11T04:30:57.891Z,100.00
2022-10-11T04:33:59.575Z,100.00
2022-10-11T04:37:01.222Z,100.00
2022-10-11T04:40:03.738Z,100.00
2022-10-11T04:43:05.452Z,100.00
2022-10-11T04:46:08.519Z,100.00
2022-10-11T04:49:10.529Z,100.00
2022-10-11T04:52:12.149Z,100.00
2022-10-11T04:55:13.870Z,100.00
2022-10-11T04:58:15.478Z,100.00
2022-10-11T05:01:17.287Z,100.00
2022-10-11T05:04:18.958Z,100.00
2022-10-11T05:07:20.608Z,100.00
2022-10-11T05:10:22.261Z,100.00
2022-10-11T05:13:24.740Z,100.00
2022-10-11T05:16:26.469Z,100.00
2022-10-11T05:19:28.157Z,100.00
2022-10-11T05:22:29.779Z,100.00
2022-10-11T05:25:31.543Z,100.00
2022-10-11T05:28:33.295Z,100.00
2022-10-11T05:31:34.924Z,100.00
2022-10-11T05:34:36.600Z,100.00
2022-10-11T05:37:38.302Z,100.00
2022-10-11T05:40:40.534Z,100.00
2022-10-11T05:43:42.617Z,100.00
2022-10-11T05:46:44.302Z,100.00
2022-10-11T05:49:45.923Z,100.00
2022-10-11T05:52:47.665Z,100.00
2022-10-11T05:55:49.255Z,100.00
2022-10-11T05:58:51.621Z,100.00
2022-10-11T06:01:53.314Z,100.00
2022-10-11T06:04:54.927Z,100.00
2022-10-11T06:07:58.228Z,100.00
2022-10-11T06:11:11.968Z,100.00
2022-10-11T06:14:13.757Z,100.00
2022-10-11T06:17:15.434Z,100.00
2022-10-11T06:20:17.287Z,100.00
2022-10-11T06:23:18.919Z,100.00
2022-10-11T06:26:21.032Z,100.00
2022-10-11T06:29:22.730Z,100.00
2022-10-11T06:32:25.344Z,100.00
2022-10-11T06:35:27.289Z,100.00
2022-10-11T06:38:28.983Z,100.00
2022-10-11T06:41:31.294Z,100.00
2022-10-11T06:44:33.400Z,100.00
2022-10-11T06:47:35.014Z,100.00
2022-10-11T06:50:58.603Z,100.00
2022-10-11T06:54:01.817Z,100.00
2022-10-11T06:57:03.642Z,100.00
2022-10-11T07:00:10.309Z,100.00
2022-10-11T07:03:14.168Z,100.00
2022-10-11T07:06:18.419Z,100.00
2022-10-11T07:09:20.100Z,100.00
2022-10-11T07:12:21.759Z,100.00
2022-10-11T07:15:24.202Z,100.00
2022-10-11T07:18:27.174Z,100.00
2022-10-11T07:21:30.991Z,100.00
2022-10-11T07:24:32.761Z,100.00
2022-10-11T07:27:34.433Z,100.00
2022-10-11T07:30:39.378Z,100.00
2022-10-11T07:33:41.745Z,100.00
2022-10-11T07:36:43.370Z,100.00
2022-10-11T07:39:45.003Z,100.00
2022-10-11T07:42:46.615Z,100.00
2022-10-11T07:45:54.244Z,100.00
2022-10-11T07:48:56.181Z,100.00
2022-10-11T07:51:57.783Z,99.84
2022-10-11T07:54:59.436Z,98.89
2022-10-11T07:58:01.128Z,99.13
2022-10-11T08:01:02.994Z,98.15
2022-10-11T08:04:05.122Z,97.06
2022-10-11T08:07:06.831Z,96.18
2022-10-11T08:10:09.397Z,94.18
2022-10-11T08:13:11.122Z,95.48
2022-10-11T08:16:13.522Z,94.39
2022-10-11T08:19:16.199Z,94.70
2022-10-11T08:22:18.355Z,95.95
2022-10-11T08:25:19.938Z,95.07
2022-10-11T08:28:21.621Z,94.97
2022-10-11T08:31:23.500Z,95.14
2022-10-11T08:34:25.174Z,94.96
2022-10-11T08:37:27.132Z,94.39
2022-10-11T08:40:35.170Z,94.01
2022-10-11T08:44:11.939Z,94.20
2022-10-11T08:47:25.793Z,92.81
2022-10-11T08:50:28.093Z,92.54
2022-10-11T08:53:53.597Z,92.66
2022-10-11T08:56:55.358Z,93.09
2022-10-11T08:59:59.825Z,92.52
2022-10-11T09:03:17.470Z,91.21
2022-10-11T09:06:50.400Z,91.45
2022-10-11T09:10:05.266Z,89.79
2022-10-11T09:13:18.951Z,89.60
2022-10-11T09:16:58.819Z,88.92
2022-10-11T09:20:22.683Z,89.88
2022-10-11T09:24:02.046Z,88.97
2022-10-11T09:27:16.495Z,88.18
2022-10-11T09:30:20.399Z,87.42
2022-10-11T09:33:35.415Z,87.32
2022-10-11T09:36:44.775Z,87.17
2022-10-11T09:44:30.872Z,86.04
2022-10-11T09:47:39.891Z,86.79
2022-10-11T09:50:42.016Z,84.37
2022-10-11T09:54:04.158Z,83.88
2022-10-11T09:57:06.100Z,84.18
2022-10-11T10:00:20.047Z,83.06
2022-10-11T10:03:32.527Z,82.80
2022-10-11T10:06:35.076Z,82.35
2022-10-11T10:09:36.879Z,82.62
2022-10-11T10:12:38.508Z,83.54
2022-10-11T10:15:50.387Z,81.84
2022-10-11T10:19:25.406Z,81.00
2022-10-11T10:22:34.304Z,77.42
2022-10-11T10:25:43.316Z,76.95
2022-10-11T10:28:57.656Z,76.31
2022-10-11T10:32:14.223Z,74.90
2022-10-11T10:35:32.229Z,73.99
2022-10-11T10:38:40.042Z,76.51
2022-10-11T10:41:41.674Z,77.77
2022-10-11T10:44:44.266Z,75.22
2022-10-11T10:51:07.157Z,75.24
2022-10-11T10:54:32.188Z,74.30
2022-10-11T10:57:57.953Z,75.73
2022-10-11T11:01:26.052Z,75.04
2022-10-11T11:04:33.490Z,75.47
2022-10-11T11:07:50.118Z,76.09
2022-10-11T11:11:11.936Z,75.18
2022-10-11T11:14:38.175Z,76.84
2022-10-11T11:18:08.916Z,76.16
2022-10-11T11:21:28.931Z,76.57
2022-10-11T11:25:11.784Z,75.69
2022-10-11T11:28:42.763Z,74.94
2022-10-11T11:32:03.380Z,73.12
2022-10-11T11:35:14.989Z,73.78
2022-10-11T11:38:38.377Z,73.22
2022-10-11T11:41:48.052Z,71.22
2022-10-11T11:44:53.715Z,71.65
2022-10-11T11:48:02.121Z,72.33
2022-10-11T11:51:13.084Z,73.44
2022-10-11T11:54:43.253Z,73.73
2022-10-11T11:58:29.333Z,73.41
2022-10-11T12:01:42.486Z,73.07
2022-10-11T12:04:46.094Z,71.94
2022-10-11T12:07:53.331Z,65.99
2022-10-11T12:11:00.799Z,67.86
2022-10-11T12:14:27.470Z,69.61
2022-10-11T12:17:32.047Z,68.72
2022-10-11T12:20:41.840Z,71.09
2022-10-11T12:23:45.735Z,72.19
2022-10-11T12:26:50.208Z,71.46
2022-10-11T12:29:51.909Z,71.96
2022-10-11T12:33:13.714Z,73.08
2022-10-11T12:36:47.939Z,72.83
2022-10-11T12:40:38.411Z,74.54
2022-10-11T12:47:35.365Z,73.88
2022-10-11T12:50:37.015Z,73.60
2022-10-11T12:54:25.544Z,73.28
2022-10-11T12:57:46.328Z,73.44
2022-10-11T13:00:51.725Z,73.94
2022-10-11T13:04:11.830Z,74.76
2022-10-11T13:07:23.457Z,74.93
2022-10-11T13:10:31.280Z,73.74
2022-10-11T13:13:39.992Z,74.35
2022-10-11T13:17:02.315Z,74.92
2022-10-11T13:20:31.968Z,75.42
2022-10-11T13:23:44.280Z,75.62
2022-10-11T13:26:49.196Z,74.97
2022-10-11T13:29:54.454Z,74.59
2022-10-11T13:32:56.683Z,75.25
2022-10-11T13:36:00.854Z,75.62
2022-10-11T13:39:02.626Z,76.94
2022-10-11T13:42:14.393Z,76.90
2022-10-11T13:45:20.301Z,76.53
2022-10-11T13:48:22.294Z,76.89
2022-10-11T13:51:37.059Z,77.70
2022-10-11T13:55:10.420Z,78.12
2022-10-11T13:58:36.134Z,77.16
2022-10-11T14:01:41.194Z,76.68
2022-10-11T14:04:42.867Z,77.44
2022-10-11T14:07:47.751Z,77.70
2022-10-11T14:10:54.284Z,77.53
2022-10-11T14:13:58.357Z,77.59
2022-10-11T14:17:21.233Z,77.96
2022-10-11T14:20:30.797Z,76.66
2022-10-11T14:23:34.672Z,77.17
2022-10-11T14:26:42.119Z,78.05
2022-10-11T14:30:00.288Z,77.31
2022-10-11T14:33:06.964Z,77.37
2022-10-11T14:36:09.898Z,77.52
2022-10-11T14:39:21.361Z,77.93
2022-10-11T14:42:22.971Z,78.30
2022-10-11T14:45:24.974Z,79.04
2022-10-11T14:48:50.391Z,78.52
2022-10-11T14:51:50.201Z,79.27
2022-10-11T14:54:51.856Z,79.75
2022-10-11T14:57:53.488Z,80.40
2022-10-11T15:00:55.090Z,79.53
2022-10-11T15:03:56.819Z,79.71
2022-10-11T15:06:58.527Z,81.18
2022-10-11T15:10:02.823Z,80.62
2022-10-11T15:13:07.140Z,80.18
2022-10-11T15:16:10.714Z,80.07
2022-10-11T15:19:21.162Z,79.58
2022-10-11T15:22:22.840Z,79.44
2022-10-11T15:25:25.509Z,79.22
2022-10-11T15:28:29.935Z,80.25
2022-10-11T15:31:31.735Z,80.12
2022-10-11T15:34:33.384Z,80.23
2022-10-11T15:37:37.381Z,81.08
2022-10-11T15:40:39.430Z,80.95
2022-10-11T15:43:42.235Z,81.86
2022-10-11T15:46:43.893Z,81.64
2022-10-11T15:49:45.536Z,81.47
2022-10-11T15:52:47.357Z,81.69
2022-10-11T15:55:53.146Z,81.80
2022-10-11T15:58:54.773Z,82.36
2022-10-11T16:01:57.203Z,83.02
2022-10-11T16:04:59.117Z,82.84
2022-10-11T16:08:00.766Z,82.89
2022-10-11T16:11:04.302Z,83.65
2022-10-11T16:14:06.219Z,83.09
2022-10-11T16:17:07.928Z,83.49
2022-10-11T16:20:09.768Z,83.69
2022-10-11T16:23:12.785Z,83.09
2022-10-11T16:26:16.486Z,83.22
2022-10-11T16:29:18.141Z,83.23
2022-10-11T16:32:20.146Z,83.70
2022-10-11T16:35:22.397Z,83.91
2022-10-11T16:38:24.140Z,84.73
2022-10-11T16:41:26.197Z,85.60
2022-10-11T16:44:28.928Z,86.36
2022-10-11T16:47:32.896Z,87.16
2022-10-11T16:50:39.323Z,88.13
2022-10-11T16:53:41.351Z,88.79
2022-10-11T16:56:43.280Z,90.10
2022-10-11T16:59:45.520Z,90.54
2022-10-11T17:02:47.170Z,90.55
2022-10-11T17:05:48.820Z,91.09
2022-10-11T17:08:51.574Z,91.50
2022-10-11T17:11:54.106Z,91.39
2022-10-11T17:14:56.247Z,91.68
2022-10-11T17:17:58.053Z,91.93
2022-10-11T17:21:09.277Z,91.89
2022-10-11T17:24:10.908Z,92.35
2022-10-11T17:27:12.861Z,93.18
2022-10-11T17:30:15.054Z,92.56
2022-10-11T17:33:16.714Z,91.60
2022-10-11T17:36:36.005Z,91.32
2022-10-11T17:39:37.714Z,91.20
2022-10-11T17:42:39.359Z,91.53
2022-10-11T17:45:41.577Z,91.79
2022-10-11T17:48:44.623Z,91.71
2022-10-11T17:51:46.271Z,91.56
2022-10-11T17:54:47.890Z,91.75
2022-10-11T17:57:49.544Z,92.20
2022-10-11T18:00:51.223Z,92.17
2022-10-11T18:04:01.720Z,92.74
2022-10-11T18:07:03.355Z,93.31
2022-10-11T18:10:05.341Z,93.38
2022-10-11T18:13:07.934Z,93.36
2022-10-11T18:16:40.008Z,93.42
2022-10-11T18:19:41.661Z,93.22
2022-10-11T18:22:46.654Z,93.00
2022-10-11T18:25:51.316Z,92.95
2022-10-11T18:29:08.890Z,93.60
2022-10-11T18:32:13.266Z,93.93
2022-10-11T18:35:16.450Z,94.39
2022-10-11T18:38:18.949Z,95.25
2022-10-11T18:41:22.781Z,95.81
2022-10-11T18:44:25.379Z,95.81
2022-10-11T18:47:27.024Z,96.24
2022-10-11T18:50:28.837Z,95.80
2022-10-11T18:53:31.871Z,95.92
2022-10-11T18:56:35.491Z,97.34
2022-10-11T18:59:37.276Z,98.15
2022-10-11T19:02:39.242Z,97.99
2022-10-11T19:05:41.004Z,96.93
2022-10-11T19:08:51.525Z,96.43
2022-10-11T19:11:55.787Z,96.13
2022-10-11T19:14:59.208Z,96.84
2022-10-11T19:18:02.204Z,96.96
2022-10-11T19:21:07.379Z,96.71
2022-10-11T19:24:09.741Z,97.79
2022-10-11T19:27:11.416Z,97.98
2022-10-11T19:30:13.304Z,97.77
2022-10-11T19:33:15.745Z,97.42
2022-10-11T19:36:17.959Z,97.40
2022-10-11T19:39:21.426Z,97.06
2022-10-11T19:42:23.062Z,97.16
2022-10-11T19:45:25.225Z,96.77
2022-10-11T19:48:27.047Z,96.61
2022-10-11T19:51:30.822Z,97.59
2022-10-11T19:54:32.678Z,98.90
2022-10-11T19:57:34.915Z,98.59
2022-10-11T20:00:36.644Z,98.71
2022-10-11T20:03:39.295Z,98.91
2022-10-11T20:06:43.146Z,99.16
2022-10-11T20:09:45.202Z,99.22
2022-10-11T20:12:47.117Z,99.41
2022-10-11T20:15:48.851Z,99.28
2022-10-11T20:18:51.982Z,98.60
2022-10-11T20:21:53.668Z,98.60
2022-10-11T20:24:55.717Z,98.54
2022-10-11T20:27:57.356Z,98.39
2022-10-11T20:31:00.767Z,98.48
2022-10-11T20:34:04.274Z,98.52
2022-10-11T20:37:06.817Z,98.90
2022-10-11T20:40:10.194Z,100.00
2022-10-11T20:43:11.884Z,99.93
2022-10-11T20:46:16.734Z,99.59
2022-10-11T20:49:20.006Z,98.38
2022-10-11T20:52:22.101Z,98.59
2022-10-11T20:55:23.876Z,98.60
2022-10-11T20:58:25.477Z,98.21
2022-10-11T21:01:33.662Z,96.77
2022-10-11T21:04:35.321Z,96.04
2022-10-11T21:07:37.077Z,96.25
2022-10-11T21:10:38.820Z,96.04
2022-10-11T21:13:41.051Z,95.56
2022-10-11T21:16:42.833Z,95.58
2022-10-11T21:19:44.461Z,94.93
2022-10-11T21:22:46.127Z,94.39
2022-10-11T21:25:47.743Z,94.49
2022-10-11T21:28:49.669Z,94.83
2022-10-11T21:31:51.488Z,94.44
2022-10-11T21:34:53.151Z,93.87
2022-10-11T21:37:56.026Z,94.94
2022-10-11T21:40:57.618Z,94.87
2022-10-11T21:43:59.660Z,95.05
2022-10-11T21:47:07.082Z,94.77
2022-10-11T21:50:09.284Z,93.35
2022-10-11T21:53:10.862Z,92.72
2022-10-11T21:56:12.727Z,93.77
2022-10-11T21:59:14.481Z,93.56
2022-10-11T22:02:18.454Z,92.75
2022-10-11T22:05:20.109Z,93.09
2022-10-11T22:08:23.150Z,93.63
2022-10-11T22:11:24.761Z,93.58
2022-10-11T22:14:26.988Z,93.24
2022-10-11T22:17:28.676Z,91.48
2022-10-11T22:20:33.107Z,92.59
2022-10-11T22:23:34.856Z,92.71
2022-10-11T22:26:36.481Z,93.27
2022-10-11T22:29:38.136Z,92.37
2022-10-11T22:32:39.726Z,91.73
2022-10-11T22:35:41.382Z,92.99
2022-10-11T22:38:43.967Z,92.95
2022-10-11T22:41:45.729Z,92.53
2022-10-11T22:44:52.489Z,91.22
2022-10-11T22:47:56.997Z,91.77
2022-10-11T22:50:58.774Z,92.30
2022-10-11T22:54:00.458Z,92.47
2022-10-11T22:57:02.936Z,91.80
2022-10-11T23:00:05.423Z,91.70
2022-10-11T23:03:12.240Z,91.92
2022-10-11T23:06:13.968Z,92.62
2022-10-11T23:09:15.642Z,92.80
2022-10-11T23:12:17.311Z,92.85
2022-10-11T23:15:19.086Z,92.36
2022-10-11T23:18:20.670Z,93.59
2022-10-11T23:21:22.392Z,93.68
2022-10-11T23:24:24.165Z,94.38
2022-10-11T23:27:25.795Z,94.06
2022-10-11T23:30:28.331Z,93.99
2022-10-11T23:33:30.001Z,93.50
2022-10-11T23:36:32.262Z,93.42
2022-10-11T23:39:33.934Z,92.97
2022-10-11T23:42:35.632Z,93.13
2022-10-11T23:45:37.300Z,94.46
2022-10-11T23:48:39.067Z,94.13
2022-10-11T23:51:40.829Z,94.33
2022-10-11T23:54:42.477Z,94.11
2022-10-11T23:57:44.138Z,95.35
